Time;durP1;ratioP1;P1;durP2;ratioP2;P2;SDS_P1;SDS_P2;PMS_P1;PMS_P2;Temp;Humidity;BMP_temperature;BMP_pressure;BME280_temperature;BME280_humidity;BME280_pressure;Samples;Min_cycle;Max_cycle;Signal;HPM_P1;HPM_P2
2023/03/03 00:00:39;;;;;;;22.50;16.30;;;9.50;88.20;;;;;;5032853;28;20026;-60
2023/03/03 00:03:07;;;;;;;21.52;14.95;;;9.40;88.20;;;;;;5033992;28;20068;-61
2023/03/03 00:05:33;;;;;;;22.08;15.05;;;9.40;88.40;;;;;;5033936;28;20037;-66
2023/03/03 00:08:00;;;;;;;21.73;16.42;;;9.40;88.30;;;;;;5033976;28;20490;-60
2023/03/03 00:10:25;;;;;;;23.02;15.88;;;9.40;88.50;;;;;;5033484;28;20018;-60
2023/03/03 00:12:51;;;;;;;21.40;16.67;;;9.40;88.60;;;;;;5033782;28;20041;-63
2023/03/03 00:15:20;;;;;;;20.40;15.73;;;9.30;88.90;;;;;;5033887;28;20017;-61
2023/03/03 00:17:46;;;;;;;23.75;16.05;;;9.30;89.00;;;;;;5033639;28;20056;-60
2023/03/03 00:20:33;;;;;;;23.98;17.10;;;9.30;89.20;;;;;;5033781;28;20029;-65
2023/03/03 00:23:24;;;;;;;22.42;16.08;;;9.40;89.20;;;;;;5033657;28;20033;-60
2023/03/03 00:25:52;;;;;;;24.50;15.15;;;9.30;89.30;;;;;;5033703;28;20091;-61
2023/03/03 00:28:40;;;;;;;19.63;15.75;;;9.30;89.50;;;;;;5033809;28;20021;-60
2023/03/03 00:31:33;;;;;;;20.00;15.70;;;9.20;89.30;;;;;;5032597;28;20025;-61
2023/03/03 00:34:22;;;;;;;20.85;16.38;;;9.20;89.50;;;;;;5032266;28;20064;-60
2023/03/03 00:36:50;;;;;;;21.77;16.00;;;9.20;89.60;;;;;;5025842;28;20034;-61
2023/03/03 00:39:38;;;;;;;22.85;17.45;;;9.20;90.00;;;;;;5033216;28;20022;-66
2023/03/03 00:42:15;;;;;;;24.65;17.33;;;9.20;90.00;;;;;;5033247;28;20399;-60
2023/03/03 00:44:58;;;;;;;22.30;16.23;;;9.20;90.10;;;;;;5033101;28;20033;-60
2023/03/03 00:47:25;;;;;;;24.23;16.60;;;9.20;90.10;;;;;;5033153;28;20037;-61
2023/03/03 00:49:52;;;;;;;25.65;17.23;;;9.10;90.10;;;;;;5033207;28;20383;-62
2023/03/03 00:52:18;;;;;;;22.55;17.13;;;9.10;90.10;;;;;;5032837;28;20075;-62
2023/03/03 00:54:44;;;;;;;22.92;17.23;;;9.10;90.10;;;;;;5033162;28;20478;-60
2023/03/03 00:57:11;;;;;;;22.33;16.92;;;9.10;90.20;;;;;;5032941;28;20075;-61
2023/03/03 00:59:37;;;;;;;22.40;17.02;;;9.00;90.20;;;;;;5033090;28;20072;-62
2023/03/03 01:02:04;;;;;;;22.95;16.58;;;9.10;90.20;;;;;;5032878;28;20049;-61
2023/03/03 01:04:29;;;;;;;22.92;16.83;;;9.00;90.20;;;;;;5033424;28;20039;-60
2023/03/03 01:06:55;;;;;;;21.13;16.25;;;9.00;90.20;;;;;;5032637;28;20108;-61
2023/03/03 01:09:21;;;;;;;24.73;16.83;;;9.00;90.20;;;;;;5033017;28;20021;-61
2023/03/03 01:11:47;;;;;;;23.50;17.38;;;9.10;90.20;;;;;;5032901;28;20029;-61
2023/03/03 01:14:12;;;;;;;25.23;17.42;;;9.00;90.10;;;;;;5032782;28;20025;-61
2023/03/03 01:16:40;;;;;;;21.67;16.05;;;9.00;90.10;;;;;;5032834;28;20028;-65
2023/03/03 01:19:06;;;;;;;22.35;16.33;;;9.00;90.20;;;;;;5033017;28;20022;-60
2023/03/03 01:21:32;;;;;;;21.25;16.52;;;9.00;90.20;;;;;;5031260;28;20167;-61
2023/03/03 01:23:57;;;;;;;22.35;16.83;;;9.00;90.20;;;;;;5032908;28;20116;-60
2023/03/03 01:26:23;;;;;;;25.90;17.55;;;9.00;90.20;;;;;;5032743;28;20021;-61
2023/03/03 01:28:48;;;;;;;24.70;17.73;;;9.00;90.20;;;;;;5032709;28;20548;-60
2023/03/03 01:31:14;;;;;;;23.67;17.55;;;9.00;90.30;;;;;;5032346;28;20030;-61
2023/03/03 01:33:40;;;;;;;23.55;18.23;;;8.90;90.40;;;;;;5032757;28;20021;-61
2023/03/03 01:36:06;;;;;;;21.67;17.33;;;8.90;90.40;;;;;;5031932;28;20034;-62
2023/03/03 01:38:35;;;;;;;26.90;18.40;;;8.90;90.50;;;;;;5032543;28;20014;-62
2023/03/03 01:41:01;;;;;;;25.98;19.75;;;8.90;90.50;;;;;;5032333;28;20063;-63
2023/03/03 01:43:31;;;;;;;21.73;17.13;;;8.90;90.50;;;;;;5034569;28;20471;-61
2023/03/03 01:45:57;;;;;;;25.15;18.23;;;8.90;90.60;;;;;;5036759;28;20029;-62
2023/03/03 01:48:33;;;;;;;23.85;17.83;;;8.90;90.60;;;;;;5036616;28;20028;-61
2023/03/03 01:51:02;;;;;;;24.42;18.27;;;8.80;90.60;;;;;;5036671;28;20079;-62
2023/03/03 01:53:41;;;;;;;23.00;18.73;;;8.80;90.60;;;;;;5036157;28;20075;-66
2023/03/03 01:56:08;;;;;;;24.20;18.98;;;8.70;90.70;;;;;;5036415;28;20067;-60
2023/03/03 01:58:40;;;;;;;27.63;19.35;;;8.80;90.70;;;;;;5036201;28;20032;-61
2023/03/03 02:01:14;;;;;;;26.00;20.33;;;8.70;90.80;;;;;;5036472;28;20034;-61
2023/03/03 02:03:42;;;;;;;26.20;18.80;;;8.70;90.70;;;;;;5036140;28;20037;-61
2023/03/03 02:06:12;;;;;;;24.60;19.77;;;8.70;90.80;;;;;;5035928;28;20068;-61
2023/03/03 02:09:09;;;;;;;23.80;18.45;;;8.70;90.80;;;;;;5035989;28;20032;-61
2023/03/03 02:11:37;;;;;;;24.98;19.48;;;8.70;90.80;;;;;;5036339;28;20059;-60
2023/03/03 02:14:03;;;;;;;26.85;20.63;;;8.70;90.80;;;;;;5036011;28;20021;-59
2023/03/03 02:16:29;;;;;;;25.73;19.85;;;8.70;90.80;;;;;;5036325;28;20033;-59
2023/03/03 02:18:55;;;;;;;26.77;20.13;;;8.70;90.80;;;;;;5035663;28;20021;-61
2023/03/03 02:21:22;;;;;;;26.42;19.30;;;8.70;90.80;;;;;;5035933;28;20375;-61
2023/03/03 02:24:03;;;;;;;26.77;20.60;;;8.70;90.80;;;;;;5035723;28;20026;-60
2023/03/03 02:26:32;;;;;;;26.38;19.80;;;8.60;90.80;;;;;;5034810;28;20033;-60
2023/03/03 02:28:58;;;;;;;27.98;20.67;;;8.60;90.70;;;;;;5035851;28;20077;-61
2023/03/03 02:31:27;;;;;;;27.48;20.20;;;8.60;91.10;;;;;;5036041;28;20030;-61
2023/03/03 02:33:54;;;;;;;28.45;21.40;;;8.50;90.90;;;;;;5033933;28;20372;-61
2023/03/03 02:36:23;;;;;;;28.15;21.35;;;8.60;91.00;;;;;;5035675;28;20100;-61
2023/03/03 02:39:04;;;;;;;28.02;22.08;;;8.50;91.00;;;;;;5035611;28;20028;-60
2023/03/03 02:41:52;;;;;;;26.25;22.02;;;8.50;91.00;;;;;;5035552;28;20194;-60
2023/03/03 02:44:23;;;;;;;27.20;20.42;;;8.50;91.00;;;;;;5028294;28;20536;-61
2023/03/03 02:46:51;;;;;;;26.17;21.43;;;8.50;91.00;;;;;;5019511;28;20476;-59
2023/03/03 02:49:19;;;;;;;30.05;22.40;;;8.50;91.00;;;;;;5013701;28;20029;-60
2023/03/03 02:51:45;;;;;;;27.13;21.42;;;8.50;91.00;;;;;;5014078;28;20048;-60
2023/03/03 02:54:12;;;;;;;28.08;20.85;;;8.50;91.00;;;;;;5014739;28;20018;-60
2023/03/03 02:56:38;;;;;;;26.17;20.38;;;8.40;91.00;;;;;;5015428;28;20088;-60
2023/03/03 02:59:05;;;;;;;26.73;20.83;;;8.40;91.10;;;;;;5015342;28;20025;-59
2023/03/03 03:01:35;;;;;;;26.70;20.60;;;8.40;91.10;;;;;;5015558;28;20036;-63
2023/03/03 03:04:04;;;;;;;26.77;21.08;;;8.40;91.10;;;;;;5014944;28;20034;-62
2023/03/03 03:06:30;;;;;;;29.17;21.00;;;8.40;91.10;;;;;;5015457;28;20026;-60
2023/03/03 03:08:55;;;;;;;26.23;21.42;;;8.40;91.00;;;;;;5015164;28;20022;-60
2023/03/03 03:11:21;;;;;;;28.40;21.17;;;8.30;91.00;;;;;;5015533;28;20045;-59
2023/03/03 03:13:46;;;;;;;28.25;21.85;;;8.30;91.00;;;;;;5015231;28;20524;-61
2023/03/03 03:16:12;;;;;;;27.58;21.95;;;8.30;91.20;;;;;;5015449;28;20033;-62
2023/03/03 03:18:37;;;;;;;28.13;21.55;;;8.30;90.90;;;;;;5014923;28;20022;-61
2023/03/03 03:21:08;;;;;;;25.60;21.17;;;8.30;90.90;;;;;;5015089;28;20014;-61
2023/03/03 03:23:35;;;;;;;25.10;20.38;;;8.20;90.90;;;;;;5014704;28;20026;-60
2023/03/03 03:26:00;;;;;;;24.23;18.98;;;8.20;90.80;;;;;;5015175;28;20041;-60
2023/03/03 03:28:26;;;;;;;22.88;18.38;;;8.30;90.80;;;;;;5015066;28;20020;-61
2023/03/03 03:30:51;;;;;;;23.15;18.13;;;8.20;90.70;;;;;;5014922;28;20383;-61
2023/03/03 03:33:17;;;;;;;23.13;18.13;;;8.20;90.80;;;;;;5014507;28;20107;-60
2023/03/03 03:35:45;;;;;;;22.35;16.70;;;8.20;90.80;;;;;;5014600;28;20431;-63
2023/03/03 03:38:12;;;;;;;22.88;17.65;;;8.20;90.70;;;;;;5014638;28;20108;-65
2023/03/03 03:40:38;;;;;;;19.38;15.27;;;8.20;90.70;;;;;;5015078;28;20478;-65
2023/03/03 03:43:04;;;;;;;24.08;17.33;;;8.10;90.70;;;;;;5014541;28;20046;-63
2023/03/03 03:45:29;;;;;;;20.77;14.80;;;8.10;90.60;;;;;;5014979;28;20472;-60
2023/03/03 03:47:55;;;;;;;17.92;14.52;;;8.10;90.60;;;;;;5014396;28;20117;-61
2023/03/03 03:50:20;;;;;;;17.17;13.95;;;8.10;90.60;;;;;;5014596;28;20506;-66
2023/03/03 03:52:46;;;;;;;17.98;13.15;;;8.00;90.50;;;;;;5014507;28;20014;-67
2023/03/03 03:55:12;;;;;;;16.40;13.48;;;8.10;90.60;;;;;;5014210;28;20026;-61
2023/03/03 03:57:38;;;;;;;18.02;13.15;;;8.00;90.50;;;;;;5026915;28;20033;-64
2023/03/03 04:00:07;;;;;;;17.13;13.38;;;8.10;90.50;;;;;;5019667;28;20549;-60
2023/03/03 04:02:34;;;;;;;16.02;11.73;;;8.00;90.60;;;;;;5011303;28;20022;-60
2023/03/03 04:05:00;;;;;;;17.08;12.68;;;8.00;90.70;;;;;;5013271;28;20398;-65
2023/03/03 04:07:25;;;;;;;15.25;11.27;;;8.00;90.60;;;;;;5013928;28;20538;-61
2023/03/03 04:09:51;;;;;;;19.70;12.75;;;8.00;90.70;;;;;;5014282;28;20026;-64
2023/03/03 04:12:17;;;;;;;12.57;10.02;;;8.00;90.70;;;;;;5014511;28;20029;-61
2023/03/03 04:14:42;;;;;;;14.57;11.10;;;7.90;90.70;;;;;;5013926;28;20033;-60
2023/03/03 04:17:23;;;;;;;12.75;11.18;;;8.00;90.70;;;;;;5014132;28;20486;-60
2023/03/03 04:19:51;;;;;;;12.27;10.60;;;7.90;90.80;;;;;;5013941;28;20395;-60
2023/03/03 04:22:16;;;;;;;14.05;11.13;;;7.90;90.80;;;;;;5014039;28;20033;-60
2023/03/03 04:24:42;;;;;;;13.52;11.30;;;7.90;90.90;;;;;;5012607;28;20411;-64
2023/03/03 04:27:08;;;;;;;16.20;11.00;;;7.80;90.90;;;;;;5013807;28;20101;-60
2023/03/03 04:29:34;;;;;;;15.18;10.98;;;7.90;90.90;;;;;;5013534;28;20488;-61
2023/03/03 04:31:59;;;;;;;14.02;11.23;;;7.80;91.00;;;;;;5014026;28;20033;-60
2023/03/03 04:34:25;;;;;;;14.55;10.63;;;7.80;91.00;;;;;;5013702;28;20030;-61
2023/03/03 04:36:51;;;;;;;13.85;11.15;;;7.80;91.10;;;;;;5013850;28;20057;-60
2023/03/03 04:39:16;;;;;;;12.10;10.27;;;7.80;91.10;;;;;;5013792;28;20104;-59
2023/03/03 04:41:42;;;;;;;14.57;10.93;;;7.80;91.20;;;;;;5013531;28;20034;-60
2023/03/03 04:44:08;;;;;;;15.93;11.02;;;7.80;91.10;;;;;;5013324;28;20108;-61
2023/03/03 04:46:33;;;;;;;15.73;11.07;;;7.80;91.20;;;;;;5014106;28;20082;-61
2023/03/03 04:48:59;;;;;;;15.95;10.50;;;7.80;91.20;;;;;;5013565;28;20022;-61
2023/03/03 04:51:24;;;;;;;13.50;10.63;;;7.80;91.10;;;;;;5013612;28;20410;-62
2023/03/03 04:53:50;;;;;;;14.45;11.20;;;7.70;91.10;;;;;;5013582;28;20491;-61
2023/03/03 04:56:15;;;;;;;14.40;11.30;;;7.70;91.20;;;;;;5013306;28;20053;-61
2023/03/03 04:58:41;;;;;;;16.05;12.63;;;7.70;91.20;;;;;;5013087;28;20034;-62
2023/03/03 05:01:11;;;;;;;17.25;11.82;;;7.60;91.00;;;;;;5013419;28;20022;-60
2023/03/03 05:03:36;;;;;;;22.17;15.13;;;7.60;91.00;;;;;;5013174;28;20015;-60
2023/03/03 05:06:02;;;;;;;24.20;17.83;;;7.60;91.00;;;;;;5013310;28;20064;-61
2023/03/03 05:08:28;;;;;;;24.45;18.25;;;7.60;91.10;;;;;;5012446;28;20060;-60
2023/03/03 05:10:53;;;;;;;26.92;21.15;;;7.60;91.30;;;;;;5013227;28;20029;-61
2023/03/03 05:13:19;;;;;;;31.58;23.15;;;7.60;91.20;;;;;;5012929;28;20105;-60
2023/03/03 05:15:50;;;;;;;43.08;31.90;;;7.50;91.30;;;;;;5011515;28;20501;-62
2023/03/03 05:18:17;;;;;;;46.65;34.05;;;7.50;91.30;;;;;;5012745;28;20022;-60
2023/03/03 05:20:43;;;;;;;50.75;35.17;;;7.50;91.30;;;;;;5013175;28;20467;-61
2023/03/03 05:23:08;;;;;;;55.53;38.85;;;7.40;91.40;;;;;;5012856;28;20040;-64
2023/03/03 05:25:34;;;;;;;45.22;33.20;;;7.50;91.40;;;;;;5013040;28;20037;-64
2023/03/03 05:27:59;;;;;;;40.03;31.65;;;7.40;91.40;;;;;;5012756;28;20088;-60
2023/03/03 05:30:25;;;;;;;42.80;31.52;;;7.40;91.50;;;;;;5012978;28;20037;-60
2023/03/03 05:32:51;;;;;;;38.10;30.10;;;7.40;91.40;;;;;;5029003;23;20022;-64
2023/03/03 05:35:16;;;;;;;41.05;31.20;;;7.40;91.50;;;;;;5051651;28;20048;-66
2023/03/03 05:37:46;;;;;;;44.35;32.85;;;7.40;91.60;;;;;;5052329;28;20038;-65
2023/03/03 05:40:13;;;;;;;41.85;33.03;;;7.40;91.50;;;;;;5052690;28;20017;-68
2023/03/03 05:42:38;;;;;;;40.97;30.85;;;7.40;91.60;;;;;;5051937;28;20029;-66
2023/03/03 05:45:04;;;;;;;39.58;29.35;;;7.40;91.70;;;;;;5052286;28;20036;-66
2023/03/03 05:47:30;;;;;;;46.08;33.03;;;7.30;91.70;;;;;;5052325;28;20029;-65
2023/03/03 05:49:56;;;;;;;48.10;33.85;;;7.30;91.70;;;;;;5052763;28;20044;-69
2023/03/03 05:52:23;;;;;;;48.72;35.25;;;7.30;91.60;;;;;;5052130;28;20021;-64
2023/03/03 05:54:49;;;;;;;51.47;35.33;;;7.30;91.70;;;;;;5052272;28;20033;-67
2023/03/03 05:57:15;;;;;;;48.15;35.42;;;7.30;91.80;;;;;;5052096;28;20013;-68
2023/03/03 05:59:41;;;;;;;48.78;35.08;;;7.30;91.80;;;;;;5052106;28;20029;-66
2023/03/03 06:02:06;;;;;;;50.78;36.63;;;7.40;91.80;;;;;;5036603;28;20052;-66
2023/03/03 06:04:32;;;;;;;41.28;30.15;;;7.30;91.90;;;;;;5032485;28;20029;-65
2023/03/03 06:06:58;;;;;;;36.72;28.20;;;7.40;92.80;;;;;;5034598;28;20028;-65
2023/03/03 06:09:25;;;;;;;40.35;29.33;;;7.60;92.70;;;;;;5047379;28;20512;-65
2023/03/03 06:11:52;;;;;;;37.85;29.15;;;7.70;92.50;;;;;;5042869;28;20028;-65
2023/03/03 06:14:19;;;;;;;39.40;28.40;;;7.80;92.50;;;;;;5042371;28;20108;-65
2023/03/03 06:16:46;;;;;;;31.05;24.70;;;7.90;92.30;;;;;;5051985;28;20025;-64
2023/03/03 06:19:11;;;;;;;34.40;25.10;;;8.00;92.20;;;;;;5051082;28;20043;-64
2023/03/03 06:21:37;;;;;;;35.45;26.02;;;8.00;92.20;;;;;;5034734;28;20621;-67
2023/03/03 06:24:03;;;;;;;34.65;22.95;;;8.00;92.30;;;;;;5040550;28;20056;-68
2023/03/03 06:26:29;;;;;;;39.72;29.48;;;8.00;92.30;;;;;;5044120;28;20067;-67
2023/03/03 06:28:55;;;;;;;40.47;30.10;;;8.00;91.50;;;;;;5051541;28;20067;-65
2023/03/03 06:31:20;;;;;;;41.55;29.30;;;7.80;91.30;;;;;;5055296;28;20513;-66
2023/03/03 06:33:46;;;;;;;41.97;31.27;;;7.80;91.40;;;;;;5048437;28;20037;-64
2023/03/03 06:36:12;;;;;;;47.53;33.08;;;7.70;91.40;;;;;;5047839;28;20025;-64
2023/03/03 06:38:37;;;;;;;40.83;31.05;;;7.70;91.50;;;;;;5045273;28;20025;-64
2023/03/03 06:41:06;;;;;;;41.75;30.27;;;7.60;91.60;;;;;;5048532;28;20017;-66
2023/03/03 06:43:32;;;;;;;38.10;28.70;;;7.60;91.70;;;;;;5055037;28;20091;-67
2023/03/03 06:45:58;;;;;;;42.90;31.00;;;7.60;91.70;;;;;;5050266;28;20062;-66
2023/03/03 06:48:24;;;;;;;43.70;31.13;;;7.50;91.80;;;;;;5051365;28;20021;-65
2023/03/03 06:50:49;;;;;;;48.17;33.28;;;7.50;91.90;;;;;;5050796;28;20028;-62
2023/03/03 06:53:17;;;;;;;42.97;32.03;;;7.40;92.10;;;;;;5039757;28;20032;-62
2023/03/03 06:55:44;;;;;;;41.53;28.25;;;7.50;92.00;;;;;;5038630;28;20025;-63
2023/03/03 06:58:18;;;;;;;38.58;27.17;;;7.50;91.90;;;;;;5041568;28;20606;-66
2023/03/03 07:00:51;;;;;;;35.83;24.73;;;7.50;91.90;;;;;;5049827;28;20054;-62
2023/03/03 07:03:22;;;;;;;34.97;24.85;;;7.50;92.00;;;;;;5053384;28;20027;-67
2023/03/03 07:05:47;;;;;;;35.97;25.27;;;7.50;92.00;;;;;;5050869;28;20055;-68
2023/03/03 07:08:17;;;;;;;35.53;23.95;;;7.50;92.00;;;;;;5044047;28;20489;-67
2023/03/03 07:10:44;;;;;;;31.42;22.92;;;7.20;92.70;;;;;;5046700;28;20120;-66
2023/03/03 07:13:17;;;;;;;29.40;21.13;;;7.40;92.10;;;;;;5047753;28;20025;-64
2023/03/03 07:15:43;;;;;;;22.83;17.35;;;7.40;92.00;;;;;;5048804;28;20067;-64
2023/03/03 07:18:32;;;;;;;25.10;18.42;;;7.40;92.00;;;;;;5051947;28;20432;-63
2023/03/03 07:20:58;;;;;;;23.15;16.88;;;7.30;92.20;;;;;;5054738;28;20148;-67
2023/03/03 07:23:33;;;;;;;22.60;16.85;;;7.30;92.30;;;;;;5054278;28;20028;-63
2023/03/03 07:25:59;;;;;;;24.70;18.02;;;7.40;92.20;;;;;;5054264;28;20064;-63
2023/03/03 07:28:28;;;;;;;21.10;16.20;;;7.40;92.30;;;;;;5054601;28;20051;-63
2023/03/03 07:30:55;;;;;;;20.77;14.57;;;7.30;92.50;;;;;;5054393;28;20033;-62
2023/03/03 07:33:33;;;;;;;21.20;15.52;;;7.40;92.10;;;;;;5054318;28;20082;-64
2023/03/03 07:36:00;;;;;;;23.83;16.27;;;7.40;92.20;;;;;;5054294;28;20390;-64
2023/03/03 07:38:42;;;;;;;24.15;16.60;;;7.40;92.10;;;;;;5054260;28;20017;-64
2023/03/03 07:41:19;;;;;;;23.83;17.08;;;7.40;92.20;;;;;;5053932;28;20032;-69
2023/03/03 07:44:05;;;;;;;26.52;18.70;;;7.40;92.30;;;;;;5054275;28;20063;-68
2023/03/03 07:46:42;;;;;;;25.33;17.80;;;7.40;92.60;;;;;;5046700;22;20049;-68
2023/03/03 07:49:22;;;;;;;25.80;18.17;;;7.40;92.60;;;;;;5034349;28;20063;-68
2023/03/03 07:51:52;;;;;;;29.42;22.25;;;7.40;92.50;;;;;;5034139;28;20112;-67
2023/03/03 07:54:30;;;;;;;26.65;19.55;;;7.40;92.40;;;;;;5033828;28;20017;-69
2023/03/03 07:57:16;;;;;;;23.13;18.55;;;7.40;92.20;;;;;;5034158;28;20038;-66
2023/03/03 07:59:51;;;;;;;26.70;19.85;;;7.40;92.60;;;;;;5026618;28;20049;-69
2023/03/03 08:02:32;;;;;;;24.50;18.77;;;7.40;92.40;;;;;;5032828;28;20113;-68
2023/03/03 08:04:57;;;;;;;27.95;20.20;;;7.40;92.80;;;;;;5033893;28;20445;-67
2023/03/03 08:07:23;;;;;;;31.40;20.77;;;7.40;92.50;;;;;;5033719;28;20534;-68
2023/03/03 08:09:57;;;;;;;27.88;19.52;;;7.40;92.50;;;;;;5033846;28;20036;-69
2023/03/03 08:12:40;;;;;;;28.30;19.95;;;7.40;92.40;;;;;;5033998;28;20383;-67
2023/03/03 08:15:15;;;;;;;29.30;19.33;;;7.40;92.60;;;;;;5033578;28;20394;-70
2023/03/03 08:17:42;;;;;;;31.10;22.27;;;7.50;92.50;;;;;;5033818;28;20034;-67
2023/03/03 08:20:28;;;;;;;40.28;28.30;;;7.50;92.40;;;;;;5033589;28;20458;-67
2023/03/03 08:22:54;;;;;;;39.53;27.38;;;7.50;92.20;;;;;;5033253;28;20033;-70
2023/03/03 08:25:20;;;;;;;37.42;27.98;;;7.40;92.50;;;;;;5032328;28;20144;-69
2023/03/03 08:27:45;;;;;;;40.05;27.83;;;7.50;92.10;;;;;;5033576;28;20100;-66
2023/03/03 08:30:11;;;;;;;39.03;26.83;;;7.40;92.40;;;;;;5033495;28;20533;-68
2023/03/03 08:32:37;;;;;;;35.10;25.58;;;7.50;92.30;;;;;;5033441;28;20033;-68
2023/03/03 08:35:03;;;;;;;32.65;24.08;;;7.50;92.30;;;;;;5032946;28;20029;-67
2023/03/03 08:37:28;;;;;;;33.97;23.90;;;7.40;92.30;;;;;;5033155;28;20030;-69
2023/03/03 08:39:54;;;;;;;37.88;27.63;;;7.50;92.50;;;;;;5033438;28;20025;-69
2023/03/03 08:42:19;;;;;;;46.40;31.58;;;7.50;92.30;;;;;;5033224;28;20033;-68
2023/03/03 08:44:45;;;;;;;51.67;37.15;;;7.50;92.50;;;;;;5033287;28;20043;-68
2023/03/03 08:47:10;;;;;;;50.35;37.17;;;7.60;92.10;;;;;;5033022;28;20025;-69
2023/03/03 08:49:36;;;;;;;50.20;36.78;;;7.50;92.20;;;;;;5033327;28;20026;-67
2023/03/03 08:52:02;;;;;;;41.45;29.83;;;7.60;92.40;;;;;;5032277;28;20032;-69
2023/03/03 08:54:28;;;;;;;46.92;32.15;;;7.50;92.30;;;;;;5033042;28;20068;-67
2023/03/03 08:56:53;;;;;;;43.30;30.90;;;7.50;92.40;;;;;;5033123;28;20528;-65
2023/03/03 08:59:19;;;;;;;39.95;29.02;;;7.60;92.30;;;;;;5021949;28;20053;-64
2023/03/03 09:01:45;;;;;;;35.78;26.38;;;7.60;92.20;;;;;;5013117;28;20484;-66
2023/03/03 09:04:10;;;;;;;37.58;28.75;;;7.60;92.40;;;;;;5028834;28;20025;-66
2023/03/03 09:06:36;;;;;;;39.70;28.83;;;7.60;92.20;;;;;;5017519;28;20052;-65
2023/03/03 09:09:02;;;;;;;39.60;29.52;;;7.60;92.40;;;;;;5021886;28;20083;-68
2023/03/03 09:11:28;;;;;;;39.75;30.08;;;7.70;92.10;;;;;;5023366;28;20116;-67
2023/03/03 09:14:14;;;;;;;43.28;32.53;;;7.60;92.30;;;;;;5015346;28;20455;-67
2023/03/03 09:16:46;;;;;;;46.78;33.20;;;7.70;92.70;;;;;;5017946;28;20144;-65
2023/03/03 09:19:20;;;;;;;;;;;7.70;92.10;;;;;;5020151;28;20030;-64
2023/03/03 09:21:45;;;;;;;35.85;26.27;;;7.60;92.10;;;;;;5026345;28;19905;-67
2023/03/03 09:24:24;;;;;;;37.17;27.33;;;7.60;92.30;;;;;;5014352;28;20048;-68
2023/03/03 09:26:51;;;;;;;37.28;27.45;;;7.70;92.20;;;;;;5023821;28;20030;-68
2023/03/03 09:29:29;;;;;;;40.75;27.75;;;7.60;92.30;;;;;;5021459;28;20040;-67
2023/03/03 09:31:57;;;;;;;36.50;27.33;;;7.60;92.50;;;;;;5014609;28;20022;-68
2023/03/03 09:34:38;;;;;;;34.60;25.33;;;7.70;92.30;;;;;;5015318;28;20033;-67
2023/03/03 09:37:25;;;;;;;36.10;26.48;;;7.80;92.20;;;;;;5021422;28;20379;-67
2023/03/03 09:39:53;;;;;;;34.05;25.75;;;7.80;92.10;;;;;;5026092;28;20117;-66
2023/03/03 09:42:44;;;;;;;34.38;25.92;;;7.80;92.20;;;;;;5014479;28;20025;-65
2023/03/03 09:45:40;;;;;;;29.85;23.45;;;7.80;92.10;;;;;;5029474;28;20037;-66
2023/03/03 09:48:36;;;;;;;33.33;26.00;;;7.80;92.10;;;;;;5027757;28;20033;-67
2023/03/03 09:51:26;;;;;;;31.13;24.67;;;7.80;92.10;;;;;;5018282;28;20267;-63
2023/03/03 09:54:17;;;;;;;26.63;20.95;;;7.80;92.20;;;;;;5030169;28;20044;-65
2023/03/03 09:56:49;;;;;;;28.05;21.45;;;7.80;92.10;;;;;;5017156;28;20029;-67
2023/03/03 09:59:27;;;;;;;30.88;21.90;;;7.80;92.20;;;;;;5019050;28;20026;-66
2023/03/03 10:02:02;;;;;;;31.00;22.65;;;7.90;92.20;;;;;;5026330;28;20036;-70
2023/03/03 10:04:37;;;;;;;28.80;21.00;;;7.80;92.20;;;;;;5015435;28;20382;-69
2023/03/03 10:07:03;;;;;;;32.40;23.25;;;7.90;92.10;;;;;;5025861;28;20038;-66
2023/03/03 10:09:37;;;;;;;32.72;23.05;;;7.90;92.10;;;;;;5022488;28;20033;-63
2023/03/03 10:12:21;;;;;;;30.45;23.08;;;7.90;92.10;;;;;;5033466;28;20391;-65
2023/03/03 10:15:08;;;;;;;33.03;24.85;;;7.90;92.10;;;;;;5028039;28;20117;-68
2023/03/03 10:17:44;;;;;;;33.95;25.73;;;7.90;92.10;;;;;;5028133;28;20056;-69
2023/03/03 10:20:31;;;;;;;36.50;28.90;;;7.90;92.10;;;;;;5015849;28;20563;-66
2023/03/03 10:23:19;;;;;;;37.92;32.67;;;7.90;92.20;;;;;;5024140;28;20084;-67
2023/03/03 10:26:24;;;;;;;38.33;29.35;;;8.00;92.10;;;;;;5016540;28;20046;-69
2023/03/03 10:29:02;;;;;;;34.80;26.58;;;8.10;92.20;;;;;;5004580;28;20387;-66
2023/03/03 10:31:44;;;;;;;32.58;23.95;;;8.00;92.20;;;;;;5027497;28;20042;-69
2023/03/03 10:34:36;;;;;;;28.63;21.63;;;8.10;92.20;;;;;;5033597;28;20034;-65
2023/03/03 10:37:02;;;;;;;;;;;8.10;92.10;;;;;;5030857;28;20108;-69
2023/03/03 10:39:38;;;;;;;31.73;23.98;;;8.10;92.00;;;;;;5033297;28;20000;-67
2023/03/03 10:42:16;;;;;;;28.52;23.65;;;8.10;92.20;;;;;;5017639;28;20026;-63
2023/03/03 10:45:03;;;;;;;32.13;22.60;;;8.10;92.20;;;;;;5028911;28;20311;-69
2023/03/03 10:47:48;;;;;;;28.55;22.10;;;8.10;92.20;;;;;;5029851;28;20045;-67
2023/03/03 10:50:15;;;;;;;23.80;20.67;;;8.20;92.20;;;;;;5017077;28;20125;-66
2023/03/03 10:53:05;;;;;;;24.75;19.45;;;8.20;92.20;;;;;;5013563;28;20084;-67
2023/03/03 10:56:09;;;;;;;22.95;16.27;;;8.10;92.10;;;;;;5030732;28;20071;-65
2023/03/03 10:58:35;;;;;;;26.67;18.00;;;8.20;92.00;;;;;;5008481;28;20375;-66
2023/03/03 11:01:20;;;;;;;23.88;20.08;;;8.20;92.10;;;;;;5032678;28;20025;-69
2023/03/03 11:04:13;;;;;;;26.63;20.40;;;8.20;92.30;;;;;;5030751;28;20029;-67
2023/03/03 11:06:58;;;;;;;28.15;22.10;;;8.20;92.30;;;;;;5030065;28;20029;-66
2023/03/03 11:09:32;;;;;;;26.52;20.55;;;8.20;92.30;;;;;;5018704;28;20483;-68
2023/03/03 11:12:14;;;;;;;23.55;19.20;;;8.20;92.40;;;;;;5019212;28;20415;-66
2023/03/03 11:14:56;;;;;;;21.77;19.00;;;8.20;93.10;;;;;;5024400;28;20025;-68
2023/03/03 11:17:36;;;;;;;21.48;17.05;;;8.30;92.90;;;;;;5029284;28;20083;-68
2023/03/03 11:20:30;;;;;;;21.65;16.52;;;8.20;92.70;;;;;;5013810;28;20033;-67
2023/03/03 11:23:22;;;;;;;25.20;19.10;;;8.30;92.90;;;;;;5024941;28;20083;-67
2023/03/03 11:25:48;;;;;;;;;;;8.30;92.70;;;;;;5034392;28;20041;-68
2023/03/03 11:29:01;;;;;;;29.58;21.98;;;8.30;93.00;;;;;;5034248;28;19988;-69
2023/03/03 11:31:39;;;;;;;28.92;21.33;;;8.40;92.20;;;;;;5016420;28;20061;-69
2023/03/03 11:34:27;;;;;;;30.77;21.50;;;8.40;93.20;;;;;;5031932;28;20026;-69
2023/03/03 11:37:22;;;;;;;25.00;19.83;;;8.40;92.50;;;;;;5016050;28;20121;-66
2023/03/03 11:39:50;;;;;;;20.17;16.45;;;8.50;92.30;;;;;;5030007;28;20017;-68
2023/03/03 11:42:30;;;;;;;24.88;20.25;;;8.50;92.10;;;;;;5033081;28;20017;-67
2023/03/03 11:45:01;;;;;;;24.92;20.58;;;8.60;91.70;;;;;;5026253;28;20458;-67
2023/03/03 11:47:29;;;;;;;23.48;18.42;;;8.60;91.70;;;;;;5011757;28;20423;-66
2023/03/03 11:50:21;;;;;;;21.95;16.42;;;8.70;91.70;;;;;;5012452;28;20379;-67
2023/03/03 11:53:17;;;;;;;23.52;20.17;;;8.70;91.50;;;;;;5025342;28;20053;-66
2023/03/03 11:55:48;;;;;;;22.20;16.77;;;8.60;91.80;;;;;;5030007;28;20139;-64
2023/03/03 11:58:24;;;;;;;20.73;14.95;;;8.70;91.60;;;;;;5031693;28;20033;-67
2023/03/03 12:01:04;;;;;;;22.80;16.20;;;8.70;91.80;;;;;;5031397;28;20072;-67
2023/03/03 12:03:36;;;;;;;21.40;17.10;;;8.70;91.90;;;;;;5021342;28;20033;-68
2023/03/03 12:06:25;;;;;;;27.17;19.55;;;8.70;92.10;;;;;;5012769;28;20049;-67
2023/03/03 12:09:05;;;;;;;25.55;20.27;;;8.80;91.80;;;;;;5012667;28;20034;-67
2023/03/03 12:12:02;;;;;;;21.85;17.73;;;8.80;91.50;;;;;;5012849;28;20030;-68
2023/03/03 12:14:31;;;;;;;19.48;15.80;;;8.90;91.40;;;;;;5011717;28;20120;-68
2023/03/03 12:17:03;;;;;;;20.40;16.13;;;8.90;91.30;;;;;;5012435;28;20041;-67
2023/03/03 12:19:43;;;;;;;22.80;19.13;;;8.90;91.30;;;;;;5012364;28;20021;-68
2023/03/03 12:22:33;;;;;;;21.15;17.98;;;9.00;91.30;;;;;;5012335;28;20049;-64
2023/03/03 12:25:04;;;;;;;25.13;20.80;;;8.90;91.20;;;;;;5012387;28;20045;-65
2023/03/03 12:27:48;;;;;;;25.13;19.40;;;8.90;91.00;;;;;;5012665;28;20088;-68
2023/03/03 12:30:48;;;;;;;20.80;17.17;;;8.90;91.30;;;;;;5011356;28;20105;-68
2023/03/03 12:33:30;;;;;;;23.80;18.33;;;9.00;91.10;;;;;;4989777;28;20029;-67
2023/03/03 12:36:25;;;;;;;21.70;18.65;;;9.00;91.20;;;;;;5012688;28;20030;-67
2023/03/03 12:38:59;;;;;;;23.77;19.73;;;9.00;91.40;;;;;;5012219;28;20100;-69
2023/03/03 12:41:28;;;;;;;22.55;19.73;;;9.00;91.00;;;;;;5012403;28;20076;-67
2023/03/03 12:44:02;;;;;;;23.27;19.95;;;9.00;91.20;;;;;;5010801;28;20419;-68
2023/03/03 12:46:45;;;;;;;26.73;19.85;;;9.00;91.70;;;;;;5012249;28;20041;-68
2023/03/03 12:49:11;;;;;;;26.95;20.02;;;9.10;90.90;;;;;;5011260;28;20033;-67
2023/03/03 12:52:21;;;;;;;23.17;18.95;;;9.10;91.00;;;;;;5012018;28;20541;-68
2023/03/03 12:54:47;;;;;;;20.45;17.50;;;9.10;91.30;;;;;;4989005;28;20125;-68
2023/03/03 12:57:24;;;;;;;20.45;16.73;;;9.20;90.90;;;;;;5010433;28;20117;-68
2023/03/03 13:00:13;;;;;;;22.38;19.88;;;9.20;90.90;;;;;;5011591;28;20041;-68
2023/03/03 13:02:46;;;;;;;21.90;18.08;;;9.20;90.80;;;;;;5011884;28;20041;-64